Time,TemperatureF,DewpointF,PressureIn,WindDirection,WindDirectionDegrees,WindSpeedMPH,WindSpeedGustMPH,Humidity,HourlyPrecipIn,Conditions,Clouds,dailyrainin,SoftwareType,DateUTC
2013-04-21 00:01:00,45.6,29.0,30.16,NNE,20,7.4,7.4,52,0.00,CLR,SKC,0.00,WeatherDisplay:10.37,2013-04-21 05:01:00,
2013-04-21 00:06:00,45.7,29.5,30.15,NNE,15,8.1,8.1,53,0.00,CLR,SKC,0.00,WeatherDisplay:10.37,2013-04-21 05:06:00,
2013-04-21 00:11:00,45.7,29.5,30.16,ENE,57,4.6,4.6,53,0.00,CLR,SKC,0.00,WeatherDisplay:10.37,2013-04-21 05:11:00,
2013-04-21 00:16:00,45.6,29.4,30.15,NNE,26,7.4,7.4,53,0.00,CLR,SKC,0.00,WeatherDisplay:10.37,2013-04-21 05:16:00,
2013-04-21 00:21:00,45.5,29.8,30.15,NNE,25,11.5,11.5,54,0.00,CLR,SKC,0.00,WeatherDisplay:10.37,2013-04-21 05:21:00,
2013-04-21 00:26:00,45.3,30.5,30.14,NNE,15,9.2,9.2,56,0.00,CLR,SKC,0.00,WeatherDisplay:10.37,2013-04-21 05:26:00,
2013-04-21 00:31:00,45.1,30.8,30.14,NE,52,9.5,9.5,57,0.00,CLR,SKC,0.00,WeatherDisplay:10.37,2013-04-21 05:31:00,
2013-04-21 00:36:00,44.9,31.4,30.15,NNE,33,8.5,8.5,59,0.00,CLR,SKC,0.00,WeatherDisplay:10.37,2013-04-21 05:36:00,
2013-04-21 00:41:00,44.8,30.9,30.14,NNE,18,9.5,9.5,58,0.00,CLR,SKC,0.00,WeatherDisplay:10.37,2013-04-21 05:41:00,
2013-04-21 00:46:00,44.8,30.9,30.14,NNE,19,12.7,12.7,58,0.00,CLR,SKC,0.00,WeatherDisplay:10.37,2013-04-21 05:46:00,
2013-04-21 00:51:00,44.8,30.9,30.14,NNE,24,11.7,11.7,58,0.00,CLR,SKC,0.00,WeatherDisplay:10.37,2013-04-21 05:51:00,
2013-04-21 00:56:00,44.7,31.2,30.14,NE,34,11.7,11.7,59,0.00,CLR,SKC,0.00,WeatherDisplay:10.37,2013-04-21 05:56:00,
2013-04-21 01:01:00,44.7,31.2,30.13,NNE,33,9.5,9.5,59,0.00,CLR,SKC,0.00,WeatherDisplay:10.37,2013-04-21 06:01:00,
2013-04-21 01:06:00,44.8,30.9,30.15,NE,56,7.4,7.4,58,0.00,CLR,SKC,0.00,WeatherDisplay:10.37,2013-04-21 06:06:00,
2013-04-21 01:11:00,44.8,30.9,30.15,ENE,75,5.8,5.8,58,0.00,CLR,SKC,0.00,WeatherDisplay:10.37,2013-04-21 06:11:00,
2013-04-21 01:16:00,45.2,31.3,30.14,NE,41,10.6,10.6,58,0.00,CLR,SKC,0.00,WeatherDisplay:10.37,2013-04-21 06:16:00,
2013-04-21 01:21:00,45.1,31.2,30.14,NE,45,15.0,15.0,58,0.00,CLR,SKC,0.00,WeatherDisplay:10.37,2013-04-21 06:21:00,
2013-04-21 01:26:00,45.1,31.2,30.13,NNE,12,11.7,11.7,58,0.00,CLR,SKC,0.00,WeatherDisplay:10.37,2013-04-21 06:26:00,
2013-04-21 01:31:00,45.0,31.1,30.13,NNE,33,13.8,13.8,58,0.00,CLR,SKC,0.00,WeatherDisplay:10.37,2013-04-21 06:31:00,
2013-04-21 01:36:00,45.0,31.1,30.13,NE,39,8.5,8.5,58,0.00,CLR,SKC,0.00,WeatherDisplay:10.37,2013-04-21 06:36:00,
2013-04-21 01:41:00,44.9,31.0,30.13,NE,44,11.7,11.7,58,0.00,CLR,SKC,0.00,WeatherDisplay:10.37,2013-04-21 06:41:00,
2013-04-21 01:46:00,45.0,31.1,30.12,NE,51,12.7,12.7,58,0.00,CLR,SKC,0.00,WeatherDisplay:10.37,2013-04-21 06:46:00,
2013-04-21 01:51:00,45.0,31.1,30.11,NE,34,15.0,15.0,58,0.00,CLR,SKC,0.00,WeatherDisplay:10.37,2013-04-21 06:51:00,
2013-04-21 01:56:00,45.0,30.7,30.11,NE,44,15.9,15.9,57,0.00,CLR,SKC,0.00,WeatherDisplay:10.37,2013-04-21 06:56:00,
2013-04-21 02:01:00,45.0,30.7,30.11,NE,34,15.0,15.0,57,0.00,CLR,SKC,0.00,WeatherDisplay:10.37,2013-04-21 07:01:00,
2013-04-21 02:06:00,44.9,31.0,30.12,NNE,29,11.5,11.5,58,0.00,CLR,SKC,0.00,WeatherDisplay:10.37,2013-04-21 07:06:00,
2013-04-21 02:11:00,44.9,30.6,30.11,NNE,29,13.8,13.8,57,0.00,CLR,SKC,0.00,WeatherDisplay:10.37,2013-04-21 07:11:00,
2013-04-21 02:16:00,44.8,30.9,30.11,NE,46,11.5,11.5,58,0.00,CLR,SKC,0.00,WeatherDisplay:10.37,2013-04-21 07:16:00,
2013-04-21 02:21:00,44.8,30.5,30.11,NE,46,12.7,12.7,57,0.00,CLR,SKC,0.00,WeatherDisplay:10.37,2013-04-21 07:21:00,
2013-04-21 02:26:00,44.8,30.9,30.11,NNE,32,12.7,12.7,58,0.00,CLR,SKC,0.00,WeatherDisplay:10.37,2013-04-21 07:26:00,
2013-04-21 02:31:00,44.8,30.5,30.11,NE,41,10.6,10.6,57,0.00,CLR,SKC,0.00,WeatherDisplay:10.37,2013-04-21 07:31:00,
2013-04-21 02:36:00,45.0,30.7,30.11,NE,48,15.0,15.0,57,0.00,CLR,SKC,0.00,WeatherDisplay:10.37,2013-04-21 07:36:00,
2013-04-21 02:41:00,45.0,30.7,30.11,NE,43,9.5,9.5,57,0.00,CLR,SKC,0.00,WeatherDisplay:10.37,2013-04-21 07:41:00,
2013-04-21 02:47:00,45.1,30.8,30.11,NNE,25,13.8,13.8,57,0.00,CLR,SKC,0.00,WeatherDisplay:10.37,2013-04-21 07:47:00,
2013-04-21 02:52:00,45.0,30.7,30.11,NE,44,10.4,10.4,57,0.00,CLR,SKC,0.00,WeatherDisplay:10.37,2013-04-21 07:52:00,
2013-04-21 02:57:00,44.9,31.0,30.10,NE,37,10.6,10.6,58,0.00,CLR,SKC,0.00,WeatherDisplay:10.37,2013-04-21 07:57:00,
2013-04-21 03:02:00,44.9,31.0,30.10,NE,49,11.7,11.7,58,0.00,CLR,SKC,0.00,WeatherDisplay:10.37,2013-04-21 08:02:00,
2013-04-21 03:07:00,45.0,31.1,30.10,NNE,24,12.7,12.7,58,0.00,CLR,SKC,0.00,WeatherDisplay:10.37,2013-04-21 08:07:00,
2013-04-21 03:12:00,45.0,31.1,30.10,NE,42,9.5,9.5,58,0.00,CLR,SKC,0.00,WeatherDisplay:10.37,2013-04-21 08:12:00,
2013-04-21 03:17:00,44.9,31.4,30.10,NNE,32,11.7,11.7,59,0.00,CLR,SKC,0.00,WeatherDisplay:10.37,2013-04-21 08:17:00,
2013-04-21 03:22:00,44.8,31.3,30.10,NE,41,11.7,11.7,59,0.00,CLR,SKC,0.00,WeatherDisplay:10.37,2013-04-21 08:22:00,
2013-04-21 03:27:00,44.8,31.3,30.11,ENE,58,12.7,12.7,59,0.00,CLR,SKC,0.00,WeatherDisplay:10.37,2013-04-21 08:27:00,
2013-04-21 03:32:00,44.7,31.7,30.11,NE,44,10.6,10.6,60,0.00,CLR,SKC,0.00,WeatherDisplay:10.37,2013-04-21 08:32:00,
2013-04-21 03:37:00,44.7,31.7,30.10,ENE,58,12.7,12.7,60,0.00,CLR,SKC,0.00,WeatherDisplay:10.37,2013-04-21 08:37:00,
2013-04-21 03:42:00,44.5,31.9,30.11,NNE,32,9.2,9.2,61,0.00,CLR,SKC,0.00,WeatherDisplay:10.37,2013-04-21 08:42:00,
2013-04-21 03:47:00,44.5,31.9,30.11,NE,56,10.6,10.6,61,0.00,CLR,SKC,0.00,WeatherDisplay:10.37,2013-04-21 08:47:00,
2013-04-21 03:52:00,44.4,31.8,30.10,NE,45,10.6,10.6,61,0.00,CLR,SKC,0.00,WeatherDisplay:10.37,2013-04-21 08:52:00,
2013-04-21 03:57:00,44.3,32.1,30.10,NE,51,12.7,12.7,62,0.00,CLR,SKC,0.00,WeatherDisplay:10.37,2013-04-21 08:57:00,
2013-04-21 04:02:00,44.2,32.0,30.10,NE,45,11.7,11.7,62,0.00,CLR,SKC,0.00,WeatherDisplay:10.37,2013-04-21 09:02:00,
2013-04-21 04:07:00,44.1,32.3,30.10,NNE,32,11.7,11.7,63,0.00,CLR,SKC,0.00,WeatherDisplay:10.37,2013-04-21 09:07:00,
2013-04-21 04:12:00,44.0,32.2,30.10,NE,41,9.5,9.5,63,0.00,CLR,SKC,0.00,WeatherDisplay:10.37,2013-04-21 09:12:00,
2013-04-21 04:17:00,44.0,32.2,30.11,NNE,32,8.5,8.5,63,0.00,CLR,SKC,0.00,WeatherDisplay:10.37,2013-04-21 09:17:00,
2013-04-21 04:22:00,43.9,32.5,30.10,NNE,26,6.9,6.9,64,0.00,CLR,SKC,0.00,WeatherDisplay:10.37,2013-04-21 09:22:00,
2013-04-21 04:27:00,43.8,32.4,30.10,NE,41,8.5,8.5,64,0.00,CLR,SKC,0.00,WeatherDisplay:10.37,2013-04-21 09:27:00,
2013-04-21 04:32:00,43.8,32.4,30.10,NNE,27,10.4,10.4,64,0.00,CLR,SKC,0.00,WeatherDisplay:10.37,2013-04-21 09:32:00,
2013-04-21 04:37:00,43.7,32.7,30.10,NE,34,9.5,9.5,65,0.00,CLR,SKC,0.00,WeatherDisplay:10.37,2013-04-21 09:37:00,
2013-04-21 04:42:00,43.7,32.7,30.10,NE,41,9.5,9.5,65,0.00,CLR,SKC,0.00,WeatherDisplay:10.37,2013-04-21 09:42:00,
2013-04-21 04:47:00,43.7,32.7,30.10,NE,39,9.5,9.5,65,0.00,CLR,SKC,0.00,WeatherDisplay:10.37,2013-04-21 09:47:00,
2013-04-21 04:52:00,43.8,33.2,30.10,NE,38,9.5,9.5,66,0.00,CLR,SKC,0.00,WeatherDisplay:10.37,2013-04-21 09:52:00,
2013-04-21 04:57:00,43.7,33.1,30.10,NE,41,8.5,8.5,66,0.00,CLR,SKC,0.00,WeatherDisplay:10.37,2013-04-21 09:57:00,
2013-04-21 05:02:00,43.7,33.1,30.09,NE,38,13.8,13.8,66,0.00,CLR,SKC,0.00,WeatherDisplay:10.37,2013-04-21 10:02:00,
2013-04-21 05:07:00,43.6,33.0,30.10,NE,47,9.5,9.5,66,0.00,CLR,SKC,0.00,WeatherDisplay:10.37,2013-04-21 10:07:00,
2013-04-21 05:12:00,43.5,33.3,30.10,NE,39,9.5,9.5,67,0.00,CLR,SKC,0.00,WeatherDisplay:10.37,2013-04-21 10:12:00,
2013-04-21 05:17:00,43.5,33.3,30.10,NE,44,10.4,10.4,67,0.00,CLR,SKC,0.00,WeatherDisplay:10.37,2013-04-21 10:17:00,
2013-04-21 05:22:00,43.3,33.1,30.10,NE,40,10.6,10.6,67,0.00,CLR,SKC,0.00,WeatherDisplay:10.37,2013-04-21 10:22:00,
2013-04-21 05:27:00,43.2,33.3,30.10,ENE,61,9.5,9.5,68,0.00,CLR,SKC,0.00,WeatherDisplay:10.37,2013-04-21 10:27:00,
2013-04-21 05:32:00,43.1,33.3,30.09,NE,50,7.4,7.4,68,0.00,CLR,SKC,0.00,WeatherDisplay:10.37,2013-04-21 10:32:00,
2013-04-21 05:37:00,43.0,33.2,30.10,ENE,63,6.9,6.9,68,0.00,CLR,SKC,0.00,WeatherDisplay:10.37,2013-04-21 10:37:00,
2013-04-21 05:42:00,43.0,33.5,30.09,ENE,65,7.4,7.4,69,0.00,CLR,SKC,0.00,WeatherDisplay:10.37,2013-04-21 10:42:00,
2013-04-21 05:47:00,43.0,33.5,30.10,NE,34,7.4,7.4,69,0.00,CLR,SKC,0.00,WeatherDisplay:10.37,2013-04-21 10:47:00,
2013-04-21 05:52:00,43.0,33.5,30.10,ENE,73,6.9,6.9,69,0.00,CLR,SKC,0.00,WeatherDisplay:10.37,2013-04-21 10:52:00,
2013-04-21 05:57:00,43.0,33.5,30.10,NE,37,7.4,7.4,69,0.00,CLR,SKC,0.00,WeatherDisplay:10.37,2013-04-21 10:57:00,
2013-04-21 06:02:00,43.0,33.9,30.10,NE,56,6.9,6.9,70,0.00,CLR,SKC,0.00,WeatherDisplay:10.37,2013-04-21 11:02:00,
2013-04-21 06:07:00,43.0,33.9,30.10,ENE,67,9.5,9.5,70,0.00,CLR,SKC,0.00,WeatherDisplay:10.37,2013-04-21 11:07:00,
2013-04-21 06:12:00,43.1,34.0,30.10,ENE,65,5.8,5.8,70,0.00,CLR,SKC,0.00,WeatherDisplay:10.37,2013-04-21 11:12:00,
2013-04-21 06:17:00,43.1,34.0,30.10,ENE,70,6.9,6.9,70,0.00,CLR,SKC,0.00,WeatherDisplay:10.37,2013-04-21 11:17:00,
2013-04-21 06:22:00,43.1,34.0,30.10,ENE,57,8.5,8.5,70,0.00,CLR,SKC,0.00,WeatherDisplay:10.37,2013-04-21 11:22:00,
2013-04-21 06:27:00,43.1,34.0,30.10,NE,50,8.1,8.1,70,0.00,CLR,SKC,0.00,WeatherDisplay:10.37,2013-04-21 11:27:00,
2013-04-21 06:32:00,43.1,34.0,30.10,NE,43,8.1,8.1,70,0.00,CLR,SKC,0.00,WeatherDisplay:10.37,2013-04-21 11:32:00,
2013-04-21 06:37:00,43.0,34.2,30.10,NE,51,6.9,6.9,71,0.00,CLR,SKC,0.00,WeatherDisplay:10.37,2013-04-21 11:37:00,
2013-04-21 06:42:00,43.1,34.0,30.10,ENE,62,7.4,7.4,70,0.00,CLR,SKC,0.00,WeatherDisplay:10.37,2013-04-21 11:42:00,
2013-04-21 06:47:00,43.1,34.0,30.10,East,83,6.4,6.4,70,0.00,CLR,SKC,0.00,WeatherDisplay:10.37,2013-04-21 11:47:00,
2013-04-21 06:52:00,43.1,34.3,30.11,NE,44,6.4,6.4,71,0.00,CLR,SKC,0.00,WeatherDisplay:10.37,2013-04-21 11:52:00,
2013-04-21 06:57:00,43.1,34.3,30.11,NE,56,8.1,8.1,71,0.00,CLR,SKC,0.00,WeatherDisplay:10.37,2013-04-21 11:57:00,
2013-04-21 07:02:00,43.1,34.3,30.11,ENE,61,8.5,8.5,71,0.00,CLR,SKC,0.00,WeatherDisplay:10.37,2013-04-21 12:02:00,
2013-04-21 07:07:00,43.2,34.4,30.11,ENE,63,6.9,6.9,71,0.00,CLR,SKC,0.00,WeatherDisplay:10.37,2013-04-21 12:07:00,
2013-04-21 07:12:00,43.2,34.4,30.11,ENE,57,6.9,6.9,71,0.00,CLR,SKC,0.00,WeatherDisplay:10.37,2013-04-21 12:12:00,
2013-04-21 07:17:00,43.2,34.4,30.11,East,86,7.4,7.4,71,0.00,CLR,SKC,0.00,WeatherDisplay:10.37,2013-04-21 12:17:00,
2013-04-21 07:22:00,43.3,34.5,30.11,ENE,60,7.4,7.4,71,0.00,CLR,SKC,0.00,WeatherDisplay:10.37,2013-04-21 12:22:00,
2013-04-21 07:27:00,43.5,34.7,30.11,ENE,61,5.3,5.3,71,0.00,CLR,SKC,0.00,WeatherDisplay:10.37,2013-04-21 12:27:00,
2013-04-21 07:32:00,43.5,34.7,30.11,NNE,27,5.8,5.8,71,0.00,CLR,SKC,0.00,WeatherDisplay:10.37,2013-04-21 12:32:00,
2013-04-21 07:37:00,43.6,34.8,30.11,East,79,7.4,7.4,71,0.00,CLR,SKC,0.00,WeatherDisplay:10.37,2013-04-21 12:37:00,
2013-04-21 07:42:00,43.7,34.9,30.11,NNE,22,7.4,7.4,71,0.00,CLR,SKC,0.00,WeatherDisplay:10.37,2013-04-21 12:42:00,
2013-04-21 07:47:00,43.9,35.1,30.11,ENE,62,7.4,7.4,71,0.00,CLR,SKC,0.00,WeatherDisplay:10.37,2013-04-21 12:47:00,
2013-04-21 07:52:00,44.1,35.3,30.11,ENE,61,3.5,3.5,71,0.00,CLR,SKC,0.00,WeatherDisplay:10.37,2013-04-21 12:52:00,
2013-04-21 07:57:00,44.2,35.4,30.11,NE,53,7.4,7.4,71,0.00,CLR,SKC,0.00,WeatherDisplay:10.37,2013-04-21 12:57:00,
2013-04-21 08:02:00,44.4,35.6,30.11,NE,51,8.1,8.1,71,0.00,CLR,SKC,0.00,WeatherDisplay:10.37,2013-04-21 13:02:00,
2013-04-21 08:07:00,44.4,35.6,30.11,NE,36,6.9,6.9,71,0.00,CLR,SKC,0.00,WeatherDisplay:10.37,2013-04-21 13:07:00,
2013-04-21 08:12:00,44.5,35.3,30.11,NE,41,8.1,8.1,70,0.00,CLR,SKC,0.00,WeatherDisplay:10.37,2013-04-21 13:12:00,
2013-04-21 08:17:00,44.7,35.9,30.12,ENE,67,8.5,8.5,71,0.00,CLR,SKC,0.00,WeatherDisplay:10.37,2013-04-21 13:17:00,
2013-04-21 08:23:00,45.0,36.2,30.12,NE,46,6.4,6.4,71,0.00,CLR,SKC,0.00,WeatherDisplay:10.37,2013-04-21 13:23:00,
2013-04-21 08:28:00,45.4,36.2,30.12,NE,46,6.4,6.4,70,0.00,CLR,SKC,0.00,WeatherDisplay:10.37,2013-04-21 13:28:00,
2013-04-21 08:33:00,46.1,36.9,30.12,ENE,57,9.5,9.5,70,0.00,CLR,SKC,0.00,WeatherDisplay:10.37,2013-04-21 13:33:00,
2013-04-21 08:38:00,46.9,37.3,30.12,East,86,6.4,6.4,69,0.00,CLR,SKC,0.00,WeatherDisplay:10.37,2013-04-21 13:38:00,
2013-04-21 08:43:00,47.4,37.7,30.12,ENE,68,6.9,6.9,69,0.00,CLR,SKC,0.00,WeatherDisplay:10.37,2013-04-21 13:43:00,
2013-04-21 08:48:00,48.3,38.2,30.12,ESE,104,9.5,9.5,68,0.00,CLR,SKC,0.00,WeatherDisplay:10.37,2013-04-21 13:48:00,
2013-04-21 08:53:00,49.6,39.1,30.12,ENE,70,7.4,7.4,67,0.00,CLR,SKC,0.00,WeatherDisplay:10.37,2013-04-21 13:53:00,
2013-04-21 08:58:00,50.5,39.2,30.11,ENE,65,9.5,9.5,65,0.00,CLR,SKC,0.00,WeatherDisplay:10.37,2013-04-21 13:58:00,
2013-04-21 09:03:00,51.1,39.7,30.11,ENE,68,10.6,10.6,65,0.00,CLR,SKC,0.00,WeatherDisplay:10.37,2013-04-21 14:03:00,
2013-04-21 09:08:00,51.8,40.0,30.11,ENE,68,10.6,10.6,64,0.00,CLR,SKC,0.00,WeatherDisplay:10.37,2013-04-21 14:08:00,
2013-04-21 09:13:00,52.2,39.6,30.12,East,96,15.0,15.0,62,0.00,CLR,SKC,0.00,WeatherDisplay:10.37,2013-04-21 14:13:00,
2013-04-21 09:18:00,52.1,39.9,30.11,ENE,70,13.8,13.8,63,0.00,CLR,SKC,0.00,WeatherDisplay:10.37,2013-04-21 14:18:00,
2013-04-21 09:23:00,52.2,40.0,30.11,East,101,8.5,8.5,63,0.00,CLR,SKC,0.00,WeatherDisplay:10.37,2013-04-21 14:23:00,
2013-04-21 09:28:00,52.6,40.4,30.11,ENE,68,11.5,11.5,63,0.00,CLR,SKC,0.00,WeatherDisplay:10.37,2013-04-21 14:28:00,
2013-04-21 09:33:00,53.1,40.8,30.10,ENE,66,7.4,7.4,63,0.00,CLR,SKC,0.00,WeatherDisplay:10.37,2013-04-21 14:33:00,
2013-04-21 09:38:00,53.8,40.7,30.11,NE,55,12.7,12.7,61,0.00,CLR,SKC,0.00,WeatherDisplay:10.37,2013-04-21 14:38:00,
2013-04-21 09:43:00,54.8,40.7,30.10,ENE,68,15.0,15.0,59,0.00,CLR,SKC,0.00,WeatherDisplay:10.37,2013-04-21 14:43:00,
2013-04-21 09:48:00,55.4,40.9,30.10,East,84,13.8,13.8,58,0.00,CLR,SKC,0.00,WeatherDisplay:10.37,2013-04-21 14:48:00,
2013-04-21 09:53:00,56.2,41.2,30.10,East,91,11.7,11.7,57,0.00,CLR,SKC,0.00,WeatherDisplay:10.37,2013-04-21 14:53:00,
2013-04-21 09:58:00,56.9,41.4,30.10,East,85,12.7,12.7,56,0.00,CLR,SKC,0.00,WeatherDisplay:10.37,2013-04-21 14:58:00,
2013-04-21 10:03:00,57.4,41.4,30.10,East,84,17.3,17.3,55,0.00,CLR,SKC,0.00,WeatherDisplay:10.37,2013-04-21 15:03:00,
2013-04-21 10:08:00,58.0,41.9,30.10,SE,136,15.0,15.0,55,0.00,CLR,SKC,0.00,WeatherDisplay:10.37,2013-04-21 15:08:00,
2013-04-21 10:13:00,59.7,42.5,30.10,ESE,110,11.5,11.5,53,0.00,CLR,SKC,0.00,WeatherDisplay:10.37,2013-04-21 15:13:00,
2013-04-21 10:18:00,60.6,42.4,30.10,SE,139,16.1,16.1,51,0.00,CLR,SKC,0.00,WeatherDisplay:10.37,2013-04-21 15:18:00,
2013-04-21 10:23:00,61.1,41.2,30.10,ESE,118,17.3,17.3,48,0.00,CLR,SKC,0.00,WeatherDisplay:10.37,2013-04-21 15:23:00,
2013-04-21 10:28:00,60.8,41.0,30.09,ESE,112,24.4,24.4,48,0.00,CLR,SKC,0.00,WeatherDisplay:10.37,2013-04-21 15:28:00,
2013-04-21 10:33:00,61.2,41.3,30.09,SE,127,19.6,19.6,48,0.00,CLR,SKC,0.00,WeatherDisplay:10.37,2013-04-21 15:33:00,
2013-04-21 10:38:00,61.9,42.0,30.09,East,83,22.3,22.3,48,0.00,CLR,SKC,0.00,WeatherDisplay:10.37,2013-04-21 15:38:00,
2013-04-21 10:43:00,63.0,41.9,30.09,East,80,20.7,20.7,46,0.00,CLR,SKC,0.00,WeatherDisplay:10.37,2013-04-21 15:43:00,
2013-04-21 10:48:00,63.4,39.9,30.08,SE,142,21.2,21.2,42,0.00,CLR,SKC,0.00,WeatherDisplay:10.37,2013-04-21 15:48:00,
2013-04-21 10:53:00,63.9,41.5,30.08,ESE,103,15.9,15.9,44,0.00,CLR,SKC,0.00,WeatherDisplay:10.37,2013-04-21 15:53:00,
2013-04-21 10:58:00,64.2,40.0,30.08,ESE,117,20.7,20.7,41,0.00,CLR,SKC,0.00,WeatherDisplay:10.37,2013-04-21 15:58:00,
2013-04-21 11:03:00,64.3,40.7,30.08,East,98,18.4,18.4,42,0.00,CLR,SKC,0.00,WeatherDisplay:10.37,2013-04-21 16:03:00,
2013-04-21 11:08:00,63.9,39.7,30.08,East,99,20.7,20.7,41,0.00,CLR,SKC,0.00,WeatherDisplay:10.37,2013-04-21 16:08:00,
2013-04-21 11:13:00,63.5,39.4,30.08,East,91,19.1,19.1,41,0.00,CLR,SKC,0.00,WeatherDisplay:10.37,2013-04-21 16:13:00,
2013-04-21 11:18:00,63.2,39.1,30.08,ESE,121,25.4,25.4,41,0.00,CLR,SKC,0.00,WeatherDisplay:10.37,2013-04-21 16:18:00,
2013-04-21 11:23:00,63.5,39.4,30.09,ESE,121,19.1,19.1,41,0.00,CLR,SKC,0.00,WeatherDisplay:10.37,2013-04-21 16:23:00,
2013-04-21 11:28:00,63.9,39.7,30.08,ESE,117,18.0,18.0,41,0.00,CLR,SKC,0.00,WeatherDisplay:10.37,2013-04-21 16:28:00,
2013-04-21 11:33:00,64.5,40.3,30.08,SE,124,15.0,15.0,41,0.00,CLR,SKC,0.00,WeatherDisplay:10.37,2013-04-21 16:33:00,
2013-04-21 11:38:00,64.9,40.0,30.08,SSE,150,21.2,21.2,40,0.00,CLR,SKC,0.00,WeatherDisplay:10.37,2013-04-21 16:38:00,
2013-04-21 11:43:00,65.3,41.0,30.08,ESE,108,16.1,16.1,41,0.00,CLR,SKC,0.00,WeatherDisplay:10.37,2013-04-21 16:43:00,
2013-04-21 11:48:00,65.1,40.2,30.08,SE,137,16.1,16.1,40,0.00,CLR,SKC,0.00,WeatherDisplay:10.37,2013-04-21 16:48:00,
2013-04-21 11:53:00,64.8,39.9,30.08,ESE,116,23.3,23.3,40,0.00,CLR,SKC,0.00,WeatherDisplay:10.37,2013-04-21 16:53:00,
2013-04-21 11:58:00,64.8,39.9,30.08,SE,130,21.2,21.2,40,0.00,CLR,SKC,0.00,WeatherDisplay:10.37,2013-04-21 16:58:00,
2013-04-21 12:03:00,64.1,40.5,30.07,ESE,118,16.1,16.1,42,0.00,CLR,SKC,0.00,WeatherDisplay:10.37,2013-04-21 17:03:00,
2013-04-21 12:08:00,64.2,40.6,30.07,East,84,20.7,20.7,42,0.00,CLR,SKC,0.00,WeatherDisplay:10.37,2013-04-21 17:08:00,
2013-04-21 12:13:00,64.7,41.1,30.07,ESE,120,18.4,18.4,42,0.00,CLR,SKC,0.00,WeatherDisplay:10.37,2013-04-21 17:13:00,
2013-04-21 12:18:00,64.7,41.1,30.07,East,97,15.0,15.0,42,0.00,CLR,SKC,0.00,WeatherDisplay:10.37,2013-04-21 17:18:00,
2013-04-21 12:23:00,64.7,40.4,30.07,SE,131,22.3,22.3,41,0.00,CLR,SKC,0.00,WeatherDisplay:10.37,2013-04-21 17:23:00,
2013-04-21 12:28:00,64.9,40.6,30.06,ESE,109,17.3,17.3,41,0.00,CLR,SKC,0.00,WeatherDisplay:10.37,2013-04-21 17:28:00,
2013-04-21 12:33:00,65.0,40.7,30.06,ESE,118,19.1,19.1,41,0.00,CLR,SKC,0.00,WeatherDisplay:10.37,2013-04-21 17:33:00,
2013-04-21 12:38:00,65.7,40.7,30.06,East,89,21.2,21.2,40,0.00,CLR,SKC,0.00,WeatherDisplay:10.37,2013-04-21 17:38:00,
2013-04-21 12:43:00,65.7,40.1,30.06,ESE,108,13.8,13.8,39,0.00,CLR,SKC,0.00,WeatherDisplay:10.37,2013-04-21 17:43:00,
2013-04-21 12:48:00,65.2,39.6,30.05,SE,127,22.3,22.3,39,0.00,CLR,SKC,0.00,WeatherDisplay:10.37,2013-04-21 17:48:00,
2013-04-21 12:53:00,65.0,39.4,30.06,SE,127,20.7,20.7,39,0.00,CLR,SKC,0.00,WeatherDisplay:10.37,2013-04-21 17:53:00,
2013-04-21 12:58:00,65.0,39.4,30.05,ESE,118,22.3,22.3,39,0.00,CLR,SKC,0.00,WeatherDisplay:10.37,2013-04-21 17:58:00,
2013-04-21 13:03:00,65.2,39.6,30.05,ESE,117,18.0,18.0,39,0.00,CLR,SKC,0.00,WeatherDisplay:10.37,2013-04-21 18:03:00,
2013-04-21 13:08:00,65.6,39.3,30.05,ESE,116,19.6,19.6,38,0.00,CLR,SKC,0.00,WeatherDisplay:10.37,2013-04-21 18:08:00,
2013-04-21 13:13:00,66.4,39.3,30.05,ESE,108,17.3,17.3,37,0.00,CLR,SKC,0.00,WeatherDisplay:10.37,2013-04-21 18:13:00,
2013-04-21 13:18:00,66.8,39.7,30.05,ESE,117,15.9,15.9,37,0.00,CLR,SKC,0.00,WeatherDisplay:10.37,2013-04-21 18:18:00,
2013-04-21 13:23:00,66.8,39.0,30.04,SE,127,23.0,23.0,36,0.00,CLR,SKC,0.00,WeatherDisplay:10.37,2013-04-21 18:23:00,
2013-04-21 13:28:00,67.0,40.5,30.04,SE,139,18.0,18.0,38,0.00,CLR,SKC,0.00,WeatherDisplay:10.37,2013-04-21 18:28:00,
2013-04-21 13:33:00,67.3,39.4,30.03,SE,133,28.8,28.8,36,0.00,CLR,SKC,0.00,WeatherDisplay:10.37,2013-04-21 18:33:00,
2013-04-21 13:38:00,67.1,39.9,30.03,ESE,117,23.0,23.0,37,0.00,CLR,SKC,0.00,WeatherDisplay:10.37,2013-04-21 18:38:00,
2013-04-21 13:43:00,66.9,39.1,30.03,ENE,70,21.2,21.2,36,0.00,CLR,SKC,0.00,WeatherDisplay:10.37,2013-04-21 18:43:00,
2013-04-21 13:48:00,67.2,40.0,30.03,ESE,118,20.1,20.1,37,0.00,CLR,SKC,0.00,WeatherDisplay:10.37,2013-04-21 18:48:00,
2013-04-21 13:53:00,67.3,39.4,30.03,ESE,123,20.1,20.1,36,0.00,CLR,SKC,0.00,WeatherDisplay:10.37,2013-04-21 18:53:00,
2013-04-21 13:58:00,67.0,39.1,30.03,East,91,25.3,25.3,36,0.00,CLR,SKC,0.00,WeatherDisplay:10.37,2013-04-21 18:58:00,
2013-04-21 14:03:00,67.1,40.6,30.03,ENE,61,20.7,20.7,38,0.00,CLR,SKC,0.00,WeatherDisplay:10.37,2013-04-21 19:03:00,
2013-04-21 14:08:00,67.4,40.9,30.03,East,87,26.5,26.5,38,0.00,CLR,SKC,0.00,WeatherDisplay:10.37,2013-04-21 19:08:00,
2013-04-21 14:13:00,67.3,40.1,30.02,SE,129,21.2,21.2,37,0.00,CLR,SKC,0.00,WeatherDisplay:10.37,2013-04-21 19:13:00,
2013-04-21 14:18:00,67.4,40.9,30.02,ENE,64,21.2,21.2,38,0.00,CLR,SKC,0.00,WeatherDisplay:10.37,2013-04-21 19:18:00,
2013-04-21 14:24:00,67.6,41.7,30.02,ESE,110,21.9,21.9,39,0.00,CLR,SKC,0.00,WeatherDisplay:10.37,2013-04-21 19:24:00,
2013-04-21 14:29:00,67.3,40.8,30.02,SE,135,24.4,24.4,38,0.00,CLR,SKC,0.00,WeatherDisplay:10.37,2013-04-21 19:29:00,
2013-04-21 14:34:00,67.3,40.8,30.02,East,87,23.3,23.3,38,0.00,CLR,SKC,0.00,WeatherDisplay:10.37,2013-04-21 19:34:00,
2013-04-21 14:39:00,67.4,41.6,30.01,SE,134,18.4,18.4,39,0.00,CLR,SKC,0.00,WeatherDisplay:10.37,2013-04-21 19:39:00,
2013-04-21 14:44:00,67.2,41.4,30.01,ESE,116,16.1,16.1,39,0.00,CLR,SKC,0.00,WeatherDisplay:10.37,2013-04-21 19:44:00,
2013-04-21 14:49:00,67.3,41.5,30.01,ESE,116,21.2,21.2,39,0.00,CLR,SKC,0.00,WeatherDisplay:10.37,2013-04-21 19:49:00,
2013-04-21 14:54:00,67.2,40.7,30.01,ESE,113,19.6,19.6,38,0.00,CLR,SKC,0.00,WeatherDisplay:10.37,2013-04-21 19:54:00,
2013-04-21 14:59:00,67.2,40.7,30.01,ESE,118,17.3,17.3,38,0.00,CLR,SKC,0.00,WeatherDisplay:10.37,2013-04-21 19:59:00,
2013-04-21 15:04:00,67.0,41.2,30.01,SE,130,20.7,20.7,39,0.00,CLR,SKC,0.00,WeatherDisplay:10.37,2013-04-21 20:04:00,
2013-04-21 15:09:00,66.8,40.4,30.00,ESE,118,23.0,23.0,38,0.00,CLR,SKC,0.00,WeatherDisplay:10.37,2013-04-21 20:09:00,
2013-04-21 15:14:00,66.9,41.8,30.00,SE,129,15.9,15.9,40,0.00,CLR,SKC,0.00,WeatherDisplay:10.37,2013-04-21 20:14:00,
2013-04-21 15:19:00,66.7,40.9,30.00,SE,133,17.3,17.3,39,0.00,CLR,SKC,0.00,WeatherDisplay:10.37,2013-04-21 20:19:00,
2013-04-21 15:24:00,66.8,41.0,30.00,ESE,103,17.3,17.3,39,0.00,CLR,SKC,0.00,WeatherDisplay:10.37,2013-04-21 20:24:00,
2013-04-21 15:29:00,66.6,40.9,30.00,SE,124,20.7,20.7,39,0.00,CLR,SKC,0.00,WeatherDisplay:10.37,2013-04-21 20:29:00,
2013-04-21 15:34:00,66.6,40.9,29.99,ESE,117,18.0,18.0,39,0.00,CLR,SKC,0.00,WeatherDisplay:10.37,2013-04-21 20:34:00,
2013-04-21 15:39:00,66.9,41.8,29.99,ESE,120,15.0,15.0,40,0.00,CLR,SKC,0.00,WeatherDisplay:10.37,2013-04-21 20:39:00,
2013-04-21 15:44:00,66.9,41.1,29.99,ENE,75,19.6,19.6,39,0.00,CLR,SKC,0.00,WeatherDisplay:10.37,2013-04-21 20:44:00,
2013-04-21 15:49:00,66.6,40.2,30.00,East,82,24.4,24.4,38,0.00,CLR,SKC,0.00,WeatherDisplay:10.37,2013-04-21 20:49:00,
2013-04-21 15:54:00,66.4,40.7,29.99,East,96,20.7,20.7,39,0.00,CLR,SKC,0.00,WeatherDisplay:10.37,2013-04-21 20:54:00,
2013-04-21 15:59:00,66.3,41.2,29.99,ESE,120,12.7,12.7,40,0.00,CLR,SKC,0.00,WeatherDisplay:10.37,2013-04-21 20:59:00,
2013-04-21 16:04:00,66.5,40.1,29.99,ESE,123,16.1,16.1,38,0.00,CLR,SKC,0.00,WeatherDisplay:10.37,2013-04-21 21:04:00,
2013-04-21 16:09:00,67.0,41.2,29.99,ESE,117,12.7,12.7,39,0.00,CLR,SKC,0.00,WeatherDisplay:10.37,2013-04-21 21:09:00,
2013-04-21 16:14:00,67.0,40.5,29.99,ESE,110,17.3,17.3,38,0.00,CLR,SKC,0.00,WeatherDisplay:10.37,2013-04-21 21:14:00,
2013-04-21 16:19:00,66.8,39.7,29.99,SE,128,18.0,18.0,37,0.00,CLR,SKC,0.00,WeatherDisplay:10.37,2013-04-21 21:19:00,
2013-04-21 16:24:00,66.6,40.2,29.99,East,98,17.0,17.0,38,0.00,CLR,SKC,0.00,WeatherDisplay:10.37,2013-04-21 21:24:00,
2013-04-21 16:29:00,66.6,40.2,29.99,East,86,14.8,14.8,38,0.00,CLR,SKC,0.00,WeatherDisplay:10.37,2013-04-21 21:29:00,
2013-04-21 16:34:00,66.5,41.4,29.99,East,84,15.0,15.0,40,0.00,CLR,SKC,0.00,WeatherDisplay:10.37,2013-04-21 21:34:00,
2013-04-21 16:39:00,66.6,40.9,29.98,East,90,13.8,13.8,39,0.00,CLR,SKC,0.00,WeatherDisplay:10.37,2013-04-21 21:39:00,
2013-04-21 16:44:00,66.8,41.0,29.98,SSE,162,10.4,10.4,39,0.00,CLR,SKC,0.00,WeatherDisplay:10.37,2013-04-21 21:44:00,
2013-04-21 16:49:00,67.1,39.9,29.98,ESE,113,16.1,16.1,37,0.00,CLR,SKC,0.00,WeatherDisplay:10.37,2013-04-21 21:49:00,
2013-04-21 16:54:00,67.6,41.1,29.98,SE,138,16.1,16.1,38,0.00,CLR,SKC,0.00,WeatherDisplay:10.37,2013-04-21 21:54:00,
2013-04-21 16:59:00,67.8,40.6,29.98,ESE,122,17.0,17.0,37,0.00,CLR,SKC,0.00,WeatherDisplay:10.37,2013-04-21 21:59:00,
2013-04-21 17:04:00,68.0,40.7,29.98,SSE,164,13.8,13.8,37,0.00,CLR,SKC,0.00,WeatherDisplay:10.37,2013-04-21 22:04:00,
2013-04-21 17:09:00,67.7,39.8,29.98,SSE,166,13.8,13.8,36,0.00,CLR,SKC,0.00,WeatherDisplay:10.37,2013-04-21 22:09:00,
2013-04-21 17:14:00,67.5,39.6,29.98,ESE,122,17.0,17.0,36,0.00,CLR,SKC,0.00,WeatherDisplay:10.37,2013-04-21 22:14:00,
2013-04-21 17:19:00,67.4,40.2,29.98,SSE,156,15.9,15.9,37,0.00,CLR,SKC,0.00,WeatherDisplay:10.37,2013-04-21 22:19:00,
2013-04-21 17:24:00,67.8,40.6,29.98,ESE,120,12.7,12.7,37,0.00,CLR,SKC,0.00,WeatherDisplay:10.37,2013-04-21 22:24:00,
2013-04-21 17:29:00,68.2,40.2,29.98,ESE,112,14.8,14.8,36,0.00,CLR,SKC,0.00,WeatherDisplay:10.37,2013-04-21 22:29:00,
2013-04-21 17:34:00,68.1,40.1,29.98,ESE,120,22.3,22.3,36,0.00,CLR,SKC,0.00,WeatherDisplay:10.37,2013-04-21 22:34:00,
2013-04-21 17:39:00,67.9,39.9,29.98,East,96,20.7,20.7,36,0.00,CLR,SKC,0.00,WeatherDisplay:10.37,2013-04-21 22:39:00,
2013-04-21 17:44:00,67.7,39.8,29.98,ESE,108,18.4,18.4,36,0.00,CLR,SKC,0.00,WeatherDisplay:10.37,2013-04-21 22:44:00,
2013-04-21 17:49:00,67.6,40.4,29.98,SSE,158,17.3,17.3,37,0.00,CLR,SKC,0.00,WeatherDisplay:10.37,2013-04-21 22:49:00,
2013-04-21 17:54:00,67.5,41.0,29.98,ESE,122,20.1,20.1,38,0.00,CLR,SKC,0.00,WeatherDisplay:10.37,2013-04-21 22:54:00,
2013-04-21 17:59:00,67.3,40.8,29.98,ESE,113,20.7,20.7,38,0.00,CLR,SKC,0.00,WeatherDisplay:10.37,2013-04-21 22:59:00,
2013-04-21 18:04:00,67.3,41.5,29.98,East,89,13.8,13.8,39,0.00,CLR,SKC,0.00,WeatherDisplay:10.37,2013-04-21 23:04:00,
2013-04-21 18:09:00,67.3,40.8,29.98,ESE,113,17.3,17.3,38,0.00,CLR,SKC,0.00,WeatherDisplay:10.37,2013-04-21 23:09:00,
2013-04-21 18:14:00,67.3,41.5,29.98,SE,142,16.1,16.1,39,0.00,CLR,SKC,0.00,WeatherDisplay:10.37,2013-04-21 23:14:00,
2013-04-21 18:19:00,67.3,41.5,29.98,East,89,20.7,20.7,39,0.00,CLR,SKC,0.00,WeatherDisplay:10.37,2013-04-21 23:19:00,
2013-04-21 18:24:00,67.2,41.4,29.98,SSE,165,17.3,17.3,39,0.00,CLR,SKC,0.00,WeatherDisplay:10.37,2013-04-21 23:24:00,
2013-04-21 18:29:00,67.1,41.3,29.97,ESE,104,16.1,16.1,39,0.00,CLR,SKC,0.00,WeatherDisplay:10.37,2013-04-21 23:29:00,
2013-04-21 18:34:00,67.0,41.2,29.97,SSE,155,18.4,18.4,39,0.00,CLR,SKC,0.00,WeatherDisplay:10.37,2013-04-21 23:34:00,
2013-04-21 18:39:00,67.4,41.6,29.97,ESE,105,16.1,16.1,39,0.00,CLR,SKC,0.00,WeatherDisplay:10.37,2013-04-21 23:39:00,
2013-04-21 18:44:00,67.7,41.8,29.97,SE,144,21.2,21.2,39,0.00,CLR,SKC,0.00,WeatherDisplay:10.37,2013-04-21 23:44:00,
2013-04-21 18:49:00,67.8,41.9,29.97,ESE,115,18.0,18.0,39,0.00,CLR,SKC,0.00,WeatherDisplay:10.37,2013-04-21 23:49:00,
2013-04-21 18:54:00,67.7,41.8,29.97,ENE,75,14.8,14.8,39,0.00,CLR,SKC,0.00,WeatherDisplay:10.37,2013-04-21 23:54:00,
2013-04-21 18:59:00,67.6,42.4,29.97,ESE,108,11.7,11.7,40,0.00,CLR,SKC,0.00,WeatherDisplay:10.37,2013-04-21 23:59:00,
2013-04-21 19:04:00,67.4,42.2,29.97,SE,124,16.1,16.1,40,0.00,CLR,SKC,0.00,WeatherDisplay:10.37,2013-04-22 00:04:00,
2013-04-21 19:09:00,67.2,42.0,29.97,ESE,111,13.8,13.8,40,0.00,CLR,SKC,0.00,WeatherDisplay:10.37,2013-04-22 00:09:00,
2013-04-21 19:14:00,66.8,41.7,29.97,ENE,75,17.0,17.0,40,0.00,CLR,SKC,0.00,WeatherDisplay:10.37,2013-04-22 00:14:00,
2013-04-21 19:19:00,66.5,42.1,29.97,SE,134,20.7,20.7,41,0.00,CLR,SKC,0.00,WeatherDisplay:10.37,2013-04-22 00:19:00,
2013-04-21 19:24:00,66.2,41.8,29.97,SE,134,10.6,10.6,41,0.00,CLR,SKC,0.00,WeatherDisplay:10.37,2013-04-22 00:24:00,
2013-04-21 19:29:00,65.9,42.1,29.97,East,91,14.8,14.8,42,0.00,CLR,SKC,0.00,WeatherDisplay:10.37,2013-04-22 00:29:00,
2013-04-21 19:34:00,65.5,41.8,29.97,SE,146,10.4,10.4,42,0.00,CLR,SKC,0.00,WeatherDisplay:10.37,2013-04-22 00:34:00,
2013-04-21 19:39:00,65.1,42.0,29.97,ESE,115,8.1,8.1,43,0.00,CLR,SKC,0.00,WeatherDisplay:10.37,2013-04-22 00:39:00,
2013-04-21 19:45:00,64.6,42.2,29.97,SE,140,9.2,9.2,44,0.00,CLR,SKC,0.00,WeatherDisplay:10.37,2013-04-22 00:45:00,
2013-04-21 19:50:00,64.2,42.4,29.97,ESE,122,9.2,9.2,45,0.00,CLR,SKC,0.00,WeatherDisplay:10.37,2013-04-22 00:50:00,
2013-04-21 19:55:00,63.9,42.7,29.97,SE,131,10.6,10.6,46,0.00,CLR,SKC,0.00,WeatherDisplay:10.37,2013-04-22 00:55:00,
2013-04-21 20:00:00,63.5,42.3,29.98,East,82,7.4,7.4,46,0.00,CLR,SKC,0.00,WeatherDisplay:10.37,2013-04-22 01:00:00,
2013-04-21 20:05:00,63.0,42.4,29.97,ESE,122,5.8,5.8,47,0.00,CLR,SKC,0.00,WeatherDisplay:10.37,2013-04-22 01:05:00,
2013-04-21 20:10:00,62.1,42.7,29.97,ENE,62,5.8,5.8,49,0.00,CLR,SKC,0.00,WeatherDisplay:10.37,2013-04-22 01:10:00,
2013-04-21 20:15:00,61.3,42.5,29.98,NE,51,7.4,7.4,50,0.00,CLR,SKC,0.00,WeatherDisplay:10.37,2013-04-22 01:15:00,
2013-04-21 20:20:00,60.5,42.8,29.98,ENE,70,5.8,5.8,52,0.00,CLR,SKC,0.00,WeatherDisplay:10.37,2013-04-22 01:20:00,
2013-04-21 20:26:00,59.9,43.2,29.98,ENE,78,4.2,4.2,54,0.00,CLR,SKC,0.00,WeatherDisplay:10.37,2013-04-22 01:26:00,
2013-04-21 20:31:00,59.7,43.0,29.99,NE,47,4.6,4.6,54,0.00,CLR,SKC,0.00,WeatherDisplay:10.37,2013-04-22 01:31:00,
2013-04-21 20:36:00,59.4,43.2,29.99,NE,51,6.9,6.9,55,0.00,CLR,SKC,0.00,WeatherDisplay:10.37,2013-04-22 01:36:00,
2013-04-21 20:41:00,59.1,43.4,29.99,NE,49,6.9,6.9,56,0.00,CLR,SKC,0.00,WeatherDisplay:10.37,2013-04-22 01:41:00,
2013-04-21 20:46:00,58.9,43.7,29.99,ENE,57,5.8,5.8,57,0.00,CLR,SKC,0.00,WeatherDisplay:10.37,2013-04-22 01:46:00,
2013-04-21 20:51:00,58.6,43.4,29.99,East,84,6.9,6.9,57,0.00,CLR,SKC,0.00,WeatherDisplay:10.37,2013-04-22 01:51:00,
2013-04-21 20:57:00,58.2,43.5,30.00,NE,51,4.6,4.6,58,0.00,CLR,SKC,0.00,WeatherDisplay:10.37,2013-04-22 01:57:00,
2013-04-21 21:02:00,58.0,43.7,30.00,ENE,70,6.9,6.9,59,0.00,CLR,SKC,0.00,WeatherDisplay:10.37,2013-04-22 02:02:00,
2013-04-21 21:07:00,58.0,43.7,30.00,NE,37,5.8,5.8,59,0.00,CLR,SKC,0.00,WeatherDisplay:10.37,2013-04-22 02:07:00,
2013-04-21 21:12:00,58.0,44.2,30.00,ENE,61,6.9,6.9,60,0.00,CLR,SKC,0.00,WeatherDisplay:10.37,2013-04-22 02:12:00,
2013-04-21 21:17:00,57.8,44.0,30.00,East,86,4.6,4.6,60,0.00,CLR,SKC,0.00,WeatherDisplay:10.37,2013-04-22 02:17:00,
2013-04-21 21:22:00,57.6,44.2,30.01,ENE,67,4.6,4.6,61,0.00,CLR,SKC,0.00,WeatherDisplay:10.37,2013-04-22 02:22:00,
2013-04-21 21:27:00,57.5,44.1,30.02,SSE,165,5.8,5.8,61,0.00,CLR,SKC,0.00,WeatherDisplay:10.37,2013-04-22 02:27:00,
2013-04-21 21:32:00,58.2,46.1,30.05,SW,231,20.7,20.7,64,0.00,CLR,SKC,0.00,WeatherDisplay:10.37,2013-04-22 02:32:00,
2013-04-21 21:37:00,58.2,46.9,30.05,SW,216,13.8,13.8,66,0.00,CLR,SKC,0.00,WeatherDisplay:10.37,2013-04-22 02:37:00,
2013-04-21 21:42:00,57.3,48.0,30.05,WSW,240,21.2,21.2,71,0.00,CLR,SKC,0.00,WeatherDisplay:10.37,2013-04-22 02:42:00,
2013-04-21 21:47:00,55.5,48.8,30.06,ENE,61,19.6,19.6,78,0.03,RA,SKC,0.04,WeatherDisplay:10.37,2013-04-22 02:47:00,
2013-04-21 21:52:00,54.4,49.0,30.06,West,278,17.3,17.3,82,0.07,RA,SKC,0.07,WeatherDisplay:10.37,2013-04-22 02:52:00,
2013-04-21 21:57:00,53.8,49.1,30.06,WNW,290,13.8,13.8,84,0.08,RA,SKC,0.08,WeatherDisplay:10.37,2013-04-22 02:57:00,
2013-04-21 22:02:00,53.2,48.8,30.06,WNW,291,10.4,10.4,85,0.08,RA,SKC,0.08,WeatherDisplay:10.37,2013-04-22 03:02:00,
2013-04-21 22:07:00,53.0,48.9,30.06,West,281,12.7,12.7,86,0.08,CLR,SKC,0.08,WeatherDisplay:10.37,2013-04-22 03:07:00,
2013-04-21 22:12:00,52.9,49.1,30.06,WNW,283,11.5,11.5,87,0.09,RA,SKC,0.09,WeatherDisplay:10.37,2013-04-22 03:12:00,
2013-04-21 22:17:00,52.6,49.1,30.07,WNW,283,6.9,6.9,88,0.09,RA,SKC,0.09,WeatherDisplay:10.37,2013-04-22 03:17:00,
2013-04-21 22:22:00,52.4,48.9,30.07,NW,319,6.9,6.9,88,0.10,RA,SKC,0.10,WeatherDisplay:10.37,2013-04-22 03:22:00,
2013-04-21 22:27:00,52.2,49.1,30.06,NNW,328,9.5,9.5,89,0.10,RA,SKC,0.10,WeatherDisplay:10.37,2013-04-22 03:27:00,
2013-04-21 22:32:00,52.1,49.0,30.08,SW,236,4.6,4.6,89,0.10,CLR,SKC,0.11,WeatherDisplay:10.37,2013-04-22 03:32:00,
2013-04-21 22:37:00,52.1,49.3,30.09,SW,222,6.9,6.9,90,0.11,RA,SKC,0.11,WeatherDisplay:10.37,2013-04-22 03:37:00,
2013-04-21 22:42:00,52.1,49.3,30.09,SW,228,7.4,7.4,90,0.14,RA,SKC,0.16,WeatherDisplay:10.37,2013-04-22 03:42:00,
2013-04-21 22:47:00,52.1,49.3,30.09,SW,223,7.4,7.4,90,0.18,RA,SKC,0.20,WeatherDisplay:10.37,2013-04-22 03:47:00,
2013-04-21 22:52:00,52.6,49.4,30.09,SW,229,4.6,4.6,89,0.15,RA,SKC,0.22,WeatherDisplay:10.37,2013-04-22 03:52:00,
2013-04-21 22:57:00,52.4,49.6,30.08,NNW,347,1.1,1.1,90,0.16,RA,SKC,0.24,WeatherDisplay:10.37,2013-04-22 03:57:00,
2013-04-21 23:01:00,52.4,49.6,30.07,North,10,7.4,7.4,90,0.19,RA,SKC,0.26,WeatherDisplay:10.37,2013-04-22 04:01:00,
2013-04-21 23:06:00,52.2,49.7,30.07,NNW,341,8.1,8.1,91,0.21,RA,SKC,0.29,WeatherDisplay:10.37,2013-04-22 04:06:00,
2013-04-21 23:11:00,51.9,49.6,30.08,West,266,4.2,4.2,92,0.21,RA,SKC,0.30,WeatherDisplay:10.37,2013-04-22 04:11:00,
2013-04-21 23:16:00,51.7,49.5,30.08,NW,318,2.3,2.3,92,0.21,RA,SKC,0.30,WeatherDisplay:10.37,2013-04-22 04:16:00,
2013-04-21 23:21:00,51.5,49.3,30.08,NW,319,5.8,5.8,92,0.20,CLR,SKC,0.30,WeatherDisplay:10.37,2013-04-22 04:21:00,
2013-04-21 23:26:00,51.4,49.4,30.08,NNW,341,5.8,5.8,93,0.20,CLR,SKC,0.30,WeatherDisplay:10.37,2013-04-22 04:26:00,
2013-04-21 23:31:00,51.4,49.4,30.08,NNW,330,5.8,5.8,93,0.20,CLR,SKC,0.30,WeatherDisplay:10.37,2013-04-22 04:31:00,
2013-04-21 23:36:00,51.5,49.5,30.07,NNW,330,7.4,7.4,93,0.19,CLR,SKC,0.30,WeatherDisplay:10.37,2013-04-22 04:36:00,
2013-04-21 23:41:00,51.4,49.4,30.07,NW,305,7.4,7.4,93,0.15,CLR,SKC,0.30,WeatherDisplay:10.37,2013-04-22 04:41:00,
2013-04-21 23:46:00,51.4,49.4,30.07,NNW,328,7.4,7.4,93,0.10,CLR,SKC,0.30,WeatherDisplay:10.37,2013-04-22 04:46:00,
2013-04-21 23:51:00,51.4,49.4,30.08,NNW,335,6.4,6.4,93,0.08,CLR,SKC,0.30,WeatherDisplay:10.37,2013-04-22 04:51:00,
2013-04-21 23:56:00,51.4,49.4,30.07,NNW,336,6.9,6.9,93,0.07,CLR,SKC,0.30,WeatherDisplay:10.37,2013-04-22 04:56:00,